OKPTT LKTC-LZKZ
Flight info
| Callsign | OKPTT |
|---|---|
| Flight time | 1h 8m |
| Altitude | 21000 |
| Route | VLM L726 UPLAV P27 PPD R232 MARKA |
| Aircraft | PC12/L-SDFGRWY/S |
Departure
| Time | 2026-04-22 16:57 |
|---|---|
| Airport | Točná Airfield (LKTC) |
Arrival
| Time | 2026-04-22 18:05 |
|---|---|
| Airport | Košice International Airport (LZKZ) |
| Time | Latitude | Longitude | Altitude | Speed | Heading |
|---|---|---|---|---|---|
| 2026-04-22 16:56 | 49.87213 | 14.68974 | 14132 ft | 169 kts | 115° |
| 2026-04-22 16:57 | 49.86545 | 14.70484 | 14696 ft | 170 kts | 115° |
| 2026-04-22 16:57 | 49.85874 | 14.72000 | 15256 ft | 171 kts | 115° |
| 2026-04-22 16:57 | 49.85201 | 14.73521 | 15818 ft | 171 kts | 115° |
| 2026-04-22 16:57 | 49.84525 | 14.75047 | 16394 ft | 172 kts | 115° |
| 2026-04-22 16:58 | 49.84075 | 14.76063 | 16776 ft | 173 kts | 115° |
| 2026-04-22 16:58 | 49.83163 | 14.78121 | 17544 ft | 174 kts | 115° |
| 2026-04-22 16:58 | 49.82476 | 14.79668 | 18117 ft | 175 kts | 115° |
| 2026-04-22 16:58 | 49.81785 | 14.81226 | 18680 ft | 176 kts | 115° |
| 2026-04-22 16:59 | 49.81100 | 14.82767 | 19179 ft | 176 kts | 115° |
| 2026-04-22 16:59 | 49.80404 | 14.84333 | 19701 ft | 177 kts | 115° |
| 2026-04-22 16:59 | 49.79706 | 14.85904 | 20220 ft | 177 kts | 115° |
| 2026-04-22 16:59 | 49.79005 | 14.87479 | 20748 ft | 178 kts | 115° |
| 2026-04-22 17:00 | 49.78298 | 14.89072 | 21180 ft | 184 kts | 115° |
| 2026-04-22 17:00 | 49.76674 | 14.92738 | 21277 ft | 229 kts | 117° |
| 2026-04-22 17:00 | 49.75731 | 14.94838 | 21277 ft | 245 kts | 117° |
| 2026-04-22 17:01 | 49.74734 | 14.97060 | 21264 ft | 257 kts | 118° |
| 2026-04-22 17:01 | 49.73701 | 14.99366 | 21259 ft | 264 kts | 118° |
| 2026-04-22 17:01 | 49.72645 | 15.01726 | 21257 ft | 269 kts | 118° |
| 2026-04-22 17:01 | 49.71571 | 15.04124 | 21254 ft | 272 kts | 118° |
| 2026-04-22 17:02 | 49.70501 | 15.06547 | 21261 ft | 272 kts | 116° |
| 2026-04-22 17:02 | 49.69624 | 15.09116 | 21261 ft | 270 kts | 110° |
| 2026-04-22 17:02 | 49.68772 | 15.11705 | 21260 ft | 271 kts | 111° |
| 2026-04-22 17:02 | 49.67907 | 15.14282 | 21254 ft | 271 kts | 111° |
| 2026-04-22 17:03 | 49.67046 | 15.16869 | 21252 ft | 270 kts | 111° |
| 2026-04-22 17:03 | 49.66193 | 15.19441 | 21249 ft | 269 kts | 111° |
| 2026-04-22 17:03 | 49.65337 | 15.22021 | 21251 ft | 270 kts | 111° |
| 2026-04-22 17:03 | 49.64491 | 15.24561 | 21251 ft | 270 kts | 111° |
| 2026-04-22 17:04 | 49.63911 | 15.26302 | 21252 ft | 270 kts | 111° |
| 2026-04-22 17:04 | 49.62777 | 15.29699 | 21246 ft | 270 kts | 111° |
| 2026-04-22 17:04 | 49.61919 | 15.32270 | 21246 ft | 269 kts | 111° |
| 2026-04-22 17:04 | 49.61061 | 15.34838 | 21247 ft | 269 kts | 111° |
| 2026-04-22 17:05 | 49.60200 | 15.37411 | 21244 ft | 270 kts | 111° |
| 2026-04-22 17:05 | 49.59620 | 15.39142 | 21247 ft | 270 kts | 111° |
| 2026-04-22 17:05 | 49.58481 | 15.42539 | 21246 ft | 269 kts | 111° |
| 2026-04-22 17:05 | 49.57910 | 15.44240 | 21244 ft | 270 kts | 111° |
| 2026-04-22 17:06 | 49.57036 | 15.46847 | 21234 ft | 270 kts | 111° |
| 2026-04-22 17:06 | 49.56183 | 15.49380 | 21233 ft | 270 kts | 111° |
| 2026-04-22 17:06 | 49.55319 | 15.51947 | 21241 ft | 270 kts | 111° |
| 2026-04-22 17:06 | 49.54457 | 15.54507 | 21242 ft | 270 kts | 111° |
| 2026-04-22 17:07 | 49.53592 | 15.57073 | 21237 ft | 270 kts | 111° |
| 2026-04-22 17:07 | 49.52727 | 15.59635 | 21231 ft | 270 kts | 111° |
| 2026-04-22 17:07 | 49.51862 | 15.62197 | 21228 ft | 270 kts | 111° |
| 2026-04-22 17:07 | 49.50995 | 15.64758 | 21231 ft | 270 kts | 111° |
| 2026-04-22 17:08 | 49.50126 | 15.67324 | 21227 ft | 270 kts | 111° |
| 2026-04-22 17:08 | 49.49259 | 15.69882 | 21230 ft | 270 kts | 111° |
| 2026-04-22 17:08 | 49.48393 | 15.72437 | 21231 ft | 270 kts | 111° |
| 2026-04-22 17:08 | 49.47522 | 15.75001 | 21225 ft | 270 kts | 111° |
| 2026-04-22 17:09 | 49.46653 | 15.77559 | 21226 ft | 270 kts | 111° |
| 2026-04-22 17:09 | 49.45783 | 15.80114 | 21223 ft | 270 kts | 111° |
| 2026-04-22 17:09 | 49.45020 | 15.82712 | 21230 ft | 262 kts | 97° |
| 2026-04-22 17:09 | 49.44935 | 15.85454 | 21231 ft | 255 kts | 83° |
| 2026-04-22 17:10 | 49.44996 | 15.88186 | 21228 ft | 257 kts | 85° |
| 2026-04-22 17:10 | 49.44876 | 15.90948 | 21230 ft | 260 kts | 92° |
| 2026-04-22 17:10 | 49.44611 | 15.93706 | 21227 ft | 261 kts | 93° |
| 2026-04-22 17:10 | 49.44358 | 15.96466 | 21228 ft | 260 kts | 92° |
| 2026-04-22 17:11 | 49.44145 | 15.99220 | 21225 ft | 260 kts | 91° |
| 2026-04-22 17:11 | 49.43935 | 16.01947 | 21221 ft | 260 kts | 92° |
| 2026-04-22 17:11 | 49.43712 | 16.04707 | 21220 ft | 260 kts | 92° |
| 2026-04-22 17:11 | 49.43487 | 16.07466 | 21222 ft | 260 kts | 92° |
| 2026-04-22 17:12 | 49.43262 | 16.10228 | 21217 ft | 261 kts | 92° |
| 2026-04-22 17:12 | 49.43038 | 16.12990 | 21217 ft | 261 kts | 92° |
| 2026-04-22 17:12 | 49.42814 | 16.15745 | 21217 ft | 261 kts | 92° |
| 2026-04-22 17:12 | 49.42587 | 16.18512 | 21217 ft | 260 kts | 92° |
| 2026-04-22 17:13 | 49.42361 | 16.21266 | 21220 ft | 261 kts | 92° |
| 2026-04-22 17:13 | 49.42133 | 16.24035 | 21218 ft | 261 kts | 92° |
| 2026-04-22 17:13 | 49.41906 | 16.26795 | 21217 ft | 260 kts | 92° |
| 2026-04-22 17:13 | 49.41678 | 16.29550 | 21205 ft | 261 kts | 92° |
| 2026-04-22 17:14 | 49.41448 | 16.32311 | 21206 ft | 261 kts | 92° |
| 2026-04-22 17:14 | 49.41217 | 16.35074 | 21205 ft | 261 kts | 92° |
| 2026-04-22 17:14 | 49.40986 | 16.37834 | 21203 ft | 261 kts | 92° |
| 2026-04-22 17:14 | 49.40756 | 16.40592 | 21206 ft | 260 kts | 92° |
| 2026-04-22 17:15 | 49.40602 | 16.42421 | 21204 ft | 260 kts | 92° |
| 2026-04-22 17:15 | 49.40291 | 16.46105 | 21199 ft | 260 kts | 92° |
| 2026-04-22 17:15 | 49.40062 | 16.48823 | 21199 ft | 260 kts | 92° |
| 2026-04-22 17:15 | 49.39829 | 16.51580 | 21199 ft | 260 kts | 92° |
| 2026-04-22 17:16 | 49.39594 | 16.54335 | 21199 ft | 260 kts | 92° |
| 2026-04-22 17:16 | 49.39359 | 16.57091 | 21198 ft | 260 kts | 92° |
| 2026-04-22 17:16 | 49.39123 | 16.59849 | 21197 ft | 261 kts | 92° |
| 2026-04-22 17:16 | 49.38886 | 16.62614 | 21196 ft | 261 kts | 92° |
| 2026-04-22 17:17 | 49.38649 | 16.65368 | 21196 ft | 261 kts | 92° |
| 2026-04-22 17:17 | 49.38411 | 16.68123 | 21196 ft | 260 kts | 92° |
| 2026-04-22 17:17 | 49.38173 | 16.70882 | 21196 ft | 260 kts | 92° |
| 2026-04-22 17:17 | 49.37935 | 16.73634 | 21199 ft | 261 kts | 92° |
| 2026-04-22 17:18 | 49.37694 | 16.76391 | 21198 ft | 261 kts | 92° |
| 2026-04-22 17:18 | 49.37454 | 16.79145 | 21199 ft | 260 kts | 92° |
| 2026-04-22 17:18 | 49.37213 | 16.81899 | 21197 ft | 260 kts | 92° |
| 2026-04-22 17:18 | 49.36972 | 16.84653 | 21195 ft | 261 kts | 92° |
| 2026-04-22 17:19 | 49.36485 | 16.90168 | 21195 ft | 261 kts | 92° |
| 2026-04-22 17:19 | 49.35986 | 16.95672 | 21192 ft | 261 kts | 95° |
| 2026-04-22 17:20 | 49.34880 | 17.01046 | 21191 ft | 265 kts | 102° |
| 2026-04-22 17:20 | 49.33858 | 17.06455 | 21191 ft | 264 kts | 99° |
| 2026-04-22 17:21 | 49.33359 | 17.09127 | 21190 ft | 264 kts | 100° |
| 2026-04-22 17:21 | 49.32320 | 17.14531 | 21215 ft | 264 kts | 100° |
| 2026-04-22 17:22 | 49.31287 | 17.19949 | 21198 ft | 264 kts | 100° |
| 2026-04-22 17:22 | 49.30769 | 17.22652 | 21199 ft | 264 kts | 100° |
| 2026-04-22 17:22 | 49.29732 | 17.28052 | 21192 ft | 264 kts | 100° |
| 2026-04-22 17:23 | 49.29213 | 17.30751 | 21192 ft | 264 kts | 100° |
| 2026-04-22 17:23 | 49.28172 | 17.36151 | 21189 ft | 264 kts | 101° |
| 2026-04-22 17:23 | 49.27650 | 17.38851 | 21184 ft | 264 kts | 101° |
| 2026-04-22 17:24 | 49.27128 | 17.41548 | 21184 ft | 264 kts | 101° |
| 2026-04-22 17:24 | 49.26605 | 17.44246 | 21189 ft | 264 kts | 101° |
| 2026-04-22 17:24 | 49.26082 | 17.46944 | 21184 ft | 264 kts | 101° |
| 2026-04-22 17:24 | 49.25558 | 17.49639 | 21190 ft | 264 kts | 101° |
| 2026-04-22 17:25 | 49.25034 | 17.52333 | 21188 ft | 264 kts | 101° |
| 2026-04-22 17:25 | 49.24509 | 17.55025 | 21182 ft | 264 kts | 101° |
| 2026-04-22 17:25 | 49.23984 | 17.57717 | 21186 ft | 264 kts | 101° |
| 2026-04-22 17:25 | 49.23458 | 17.60407 | 21182 ft | 264 kts | 101° |
| 2026-04-22 17:26 | 49.22932 | 17.63098 | 21189 ft | 264 kts | 101° |
| 2026-04-22 17:26 | 49.22405 | 17.65788 | 21194 ft | 264 kts | 101° |
| 2026-04-22 17:26 | 49.21877 | 17.68479 | 21187 ft | 264 kts | 101° |
| 2026-04-22 17:26 | 49.21348 | 17.71171 | 21191 ft | 264 kts | 101° |
| 2026-04-22 17:27 | 49.20818 | 17.73863 | 21189 ft | 264 kts | 101° |
| 2026-04-22 17:27 | 49.20288 | 17.76555 | 21190 ft | 264 kts | 101° |
| 2026-04-22 17:27 | 49.19757 | 17.79246 | 21185 ft | 264 kts | 101° |
| 2026-04-22 17:27 | 49.19225 | 17.81938 | 21182 ft | 264 kts | 101° |
| 2026-04-22 17:28 | 49.18693 | 17.84626 | 21183 ft | 264 kts | 101° |
| 2026-04-22 17:28 | 49.18160 | 17.87315 | 21182 ft | 264 kts | 101° |
| 2026-04-22 17:28 | 49.17627 | 17.90004 | 21182 ft | 264 kts | 101° |
| 2026-04-22 17:28 | 49.17100 | 17.92656 | 21187 ft | 264 kts | 101° |
| 2026-04-22 17:29 | 49.16565 | 17.95342 | 21181 ft | 264 kts | 101° |
| 2026-04-22 17:29 | 49.16030 | 17.98031 | 21185 ft | 265 kts | 101° |
| 2026-04-22 17:29 | 49.15493 | 18.00718 | 21200 ft | 264 kts | 101° |
| 2026-04-22 17:29 | 49.14957 | 18.03402 | 21196 ft | 264 kts | 101° |
| 2026-04-22 17:30 | 49.14420 | 18.06084 | 21186 ft | 264 kts | 101° |
| 2026-04-22 17:30 | 49.13882 | 18.08771 | 21186 ft | 264 kts | 101° |
| 2026-04-22 17:30 | 49.13345 | 18.11454 | 21190 ft | 264 kts | 101° |
| 2026-04-22 17:30 | 49.12805 | 18.14137 | 21187 ft | 264 kts | 101° |
| 2026-04-22 17:31 | 49.12265 | 18.16819 | 21191 ft | 264 kts | 101° |
| 2026-04-22 17:31 | 49.11724 | 18.19504 | 21187 ft | 265 kts | 101° |
| 2026-04-22 17:31 | 49.11182 | 18.22194 | 21188 ft | 264 kts | 101° |
| 2026-04-22 17:31 | 49.10642 | 18.24867 | 21187 ft | 264 kts | 101° |
| 2026-04-22 17:32 | 49.10099 | 18.27553 | 21188 ft | 264 kts | 101° |
| 2026-04-22 17:32 | 49.09558 | 18.30226 | 21187 ft | 264 kts | 101° |
| 2026-04-22 17:32 | 49.09014 | 18.32906 | 21192 ft | 264 kts | 101° |
| 2026-04-22 17:32 | 49.08470 | 18.35583 | 21181 ft | 264 kts | 101° |
| 2026-04-22 17:33 | 49.08109 | 18.37357 | 21179 ft | 264 kts | 101° |
| 2026-04-22 17:33 | 49.07382 | 18.40931 | 21185 ft | 264 kts | 101° |
| 2026-04-22 17:33 | 49.06835 | 18.43611 | 21185 ft | 264 kts | 101° |
| 2026-04-22 17:33 | 49.06289 | 18.46284 | 21180 ft | 264 kts | 101° |
| 2026-04-22 17:34 | 49.05743 | 18.48956 | 21179 ft | 264 kts | 101° |
| 2026-04-22 17:34 | 49.05196 | 18.51628 | 21182 ft | 264 kts | 101° |
| 2026-04-22 17:34 | 49.04648 | 18.54301 | 21182 ft | 264 kts | 101° |
| 2026-04-22 17:34 | 49.04107 | 18.56938 | 21181 ft | 264 kts | 101° |
| 2026-04-22 17:35 | 49.03553 | 18.59634 | 21179 ft | 263 kts | 101° |
| 2026-04-22 17:35 | 49.03010 | 18.62270 | 21180 ft | 264 kts | 101° |
| 2026-04-22 17:35 | 49.02459 | 18.64938 | 21172 ft | 263 kts | 101° |
| 2026-04-22 17:35 | 49.01910 | 18.67598 | 21172 ft | 263 kts | 101° |
| 2026-04-22 17:36 | 49.01360 | 18.70264 | 21172 ft | 264 kts | 101° |
| 2026-04-22 17:36 | 49.00807 | 18.72929 | 21170 ft | 264 kts | 101° |
| 2026-04-22 17:36 | 49.00255 | 18.75600 | 21174 ft | 265 kts | 101° |
| 2026-04-22 17:36 | 48.99701 | 18.78275 | 21174 ft | 265 kts | 101° |
| 2026-04-22 17:37 | 48.99145 | 18.80948 | 21168 ft | 264 kts | 101° |
| 2026-04-22 17:37 | 48.98590 | 18.83610 | 21167 ft | 263 kts | 101° |
| 2026-04-22 17:37 | 48.98036 | 18.86265 | 21167 ft | 263 kts | 101° |
| 2026-04-22 17:37 | 48.97484 | 18.88916 | 21166 ft | 263 kts | 101° |
| 2026-04-22 17:38 | 48.96931 | 18.91564 | 21164 ft | 262 kts | 101° |
| 2026-04-22 17:38 | 48.96378 | 18.94209 | 21163 ft | 262 kts | 102° |
| 2026-04-22 17:38 | 48.95824 | 18.96847 | 21151 ft | 261 kts | 101° |
| 2026-04-22 17:38 | 48.95274 | 18.99476 | 21152 ft | 260 kts | 101° |
| 2026-04-22 17:39 | 48.94723 | 19.02102 | 21152 ft | 260 kts | 102° |
| 2026-04-22 17:39 | 48.94168 | 19.04740 | 21154 ft | 263 kts | 102° |
| 2026-04-22 17:39 | 48.93048 | 19.10058 | 21157 ft | 265 kts | 102° |
| 2026-04-22 17:40 | 48.92487 | 19.12716 | 21161 ft | 263 kts | 102° |
| 2026-04-22 17:40 | 48.91925 | 19.15373 | 21162 ft | 265 kts | 102° |
| 2026-04-22 17:40 | 48.91361 | 19.18038 | 21155 ft | 265 kts | 102° |
| 2026-04-22 17:40 | 48.90797 | 19.20697 | 21158 ft | 265 kts | 102° |
| 2026-04-22 17:41 | 48.90232 | 19.23359 | 21152 ft | 264 kts | 102° |
| 2026-04-22 17:41 | 48.89668 | 19.26015 | 21152 ft | 264 kts | 102° |
| 2026-04-22 17:41 | 48.89104 | 19.28666 | 21139 ft | 263 kts | 101° |
| 2026-04-22 17:41 | 48.88543 | 19.31300 | 21132 ft | 261 kts | 101° |
| 2026-04-22 17:42 | 48.87982 | 19.33919 | 21148 ft | 262 kts | 102° |
| 2026-04-22 17:42 | 48.87421 | 19.36559 | 21149 ft | 263 kts | 102° |
| 2026-04-22 17:42 | 48.87048 | 19.38309 | 21145 ft | 264 kts | 102° |
| 2026-04-22 17:42 | 48.86286 | 19.41862 | 21149 ft | 265 kts | 102° |
| 2026-04-22 17:43 | 48.85720 | 19.44501 | 21145 ft | 263 kts | 102° |
| 2026-04-22 17:43 | 48.85153 | 19.47142 | 21044 ft | 265 kts | 102° |
| 2026-04-22 17:43 | 48.84575 | 19.49835 | 20784 ft | 268 kts | 102° |
| 2026-04-22 17:43 | 48.83996 | 19.52518 | 20526 ft | 266 kts | 102° |
| 2026-04-22 17:44 | 48.83421 | 19.55179 | 20269 ft | 265 kts | 102° |
| 2026-04-22 17:44 | 48.82848 | 19.57841 | 20016 ft | 265 kts | 102° |
| 2026-04-22 17:44 | 48.82271 | 19.60512 | 19776 ft | 267 kts | 102° |
| 2026-04-22 17:44 | 48.81691 | 19.63199 | 19530 ft | 269 kts | 102° |
| 2026-04-22 17:45 | 48.81104 | 19.65908 | 19286 ft | 272 kts | 103° |
| 2026-04-22 17:45 | 48.80509 | 19.68643 | 19045 ft | 274 kts | 103° |
| 2026-04-22 17:45 | 48.79913 | 19.71389 | 18802 ft | 274 kts | 103° |
| 2026-04-22 17:45 | 48.79315 | 19.74138 | 18558 ft | 274 kts | 103° |
| 2026-04-22 17:46 | 48.78716 | 19.76882 | 18299 ft | 274 kts | 103° |
| 2026-04-22 17:46 | 48.78118 | 19.79623 | 18032 ft | 274 kts | 103° |
| 2026-04-22 17:46 | 48.77521 | 19.82367 | 17750 ft | 275 kts | 103° |
| 2026-04-22 17:46 | 48.76916 | 19.85133 | 17479 ft | 277 kts | 103° |
| 2026-04-22 17:47 | 48.76309 | 19.87905 | 17213 ft | 278 kts | 103° |
| 2026-04-22 17:47 | 48.75698 | 19.90686 | 16944 ft | 278 kts | 103° |
| 2026-04-22 17:47 | 48.75094 | 19.93434 | 16669 ft | 279 kts | 103° |
| 2026-04-22 17:47 | 48.74480 | 19.96229 | 16418 ft | 280 kts | 103° |
| 2026-04-22 17:48 | 48.74065 | 19.98124 | 16241 ft | 281 kts | 103° |
| 2026-04-22 17:48 | 48.73244 | 20.01845 | 15913 ft | 282 kts | 104° |
| 2026-04-22 17:48 | 48.72621 | 20.04660 | 15658 ft | 281 kts | 104° |
| 2026-04-22 17:48 | 48.72002 | 20.07461 | 15396 ft | 280 kts | 104° |
| 2026-04-22 17:49 | 48.71385 | 20.10250 | 15132 ft | 279 kts | 104° |
| 2026-04-22 17:49 | 48.70769 | 20.13027 | 14888 ft | 278 kts | 104° |
| 2026-04-22 17:49 | 48.70155 | 20.15797 | 14639 ft | 277 kts | 104° |
| 2026-04-22 17:49 | 48.69542 | 20.18560 | 14396 ft | 277 kts | 104° |
| 2026-04-22 17:50 | 48.68927 | 20.21319 | 14150 ft | 276 kts | 104° |
| 2026-04-22 17:50 | 48.68315 | 20.24064 | 13907 ft | 274 kts | 104° |
| 2026-04-22 17:50 | 48.67705 | 20.26802 | 13635 ft | 275 kts | 104° |
| 2026-04-22 17:50 | 48.67093 | 20.29541 | 13361 ft | 275 kts | 104° |
| 2026-04-22 17:51 | 48.66481 | 20.32279 | 13085 ft | 274 kts | 105° |
| 2026-04-22 17:51 | 48.66075 | 20.34091 | 12910 ft | 274 kts | 105° |
| 2026-04-22 17:51 | 48.65463 | 20.36818 | 12638 ft | 273 kts | 105° |
| 2026-04-22 17:51 | 48.64853 | 20.39537 | 12385 ft | 273 kts | 105° |
| 2026-04-22 17:52 | 48.64243 | 20.42253 | 12121 ft | 273 kts | 105° |
| 2026-04-22 17:52 | 48.63632 | 20.44970 | 11863 ft | 273 kts | 105° |
| 2026-04-22 17:52 | 48.63020 | 20.47686 | 11602 ft | 273 kts | 105° |
| 2026-04-22 17:52 | 48.62406 | 20.50400 | 11345 ft | 272 kts | 106° |
| 2026-04-22 17:53 | 48.61794 | 20.53110 | 11091 ft | 272 kts | 105° |
| 2026-04-22 17:53 | 48.61182 | 20.55817 | 10843 ft | 272 kts | 105° |
| 2026-04-22 17:53 | 48.60570 | 20.58525 | 10590 ft | 272 kts | 106° |
| 2026-04-22 17:53 | 48.59958 | 20.61226 | 10342 ft | 271 kts | 107° |
| 2026-04-22 17:54 | 48.59345 | 20.63918 | 10090 ft | 271 kts | 106° |
| 2026-04-22 17:54 | 48.58734 | 20.66607 | 10009 ft | 269 kts | 106° |
| 2026-04-22 17:54 | 48.58126 | 20.69279 | 10014 ft | 270 kts | 106° |
| 2026-04-22 17:54 | 48.57512 | 20.71976 | 9821 ft | 275 kts | 106° |
| 2026-04-22 17:55 | 48.56890 | 20.74697 | 9557 ft | 271 kts | 106° |
| 2026-04-22 17:55 | 48.56287 | 20.77322 | 9259 ft | 259 kts | 106° |
| 2026-04-22 17:55 | 48.55703 | 20.79876 | 9012 ft | 257 kts | 106° |
| 2026-04-22 17:55 | 48.55123 | 20.82424 | 8743 ft | 255 kts | 106° |
| 2026-04-22 17:56 | 48.54545 | 20.84946 | 8477 ft | 254 kts | 106° |
| 2026-04-22 17:56 | 48.53968 | 20.87451 | 8214 ft | 252 kts | 106° |
| 2026-04-22 17:56 | 48.53396 | 20.89939 | 7952 ft | 250 kts | 106° |
| 2026-04-22 17:56 | 48.52828 | 20.92412 | 7689 ft | 249 kts | 105° |
| 2026-04-22 17:57 | 48.52263 | 20.94861 | 7440 ft | 246 kts | 105° |
| 2026-04-22 17:57 | 48.51700 | 20.97307 | 7188 ft | 247 kts | 105° |
| 2026-04-22 17:57 | 48.51135 | 20.99752 | 6940 ft | 246 kts | 105° |
| 2026-04-22 17:57 | 48.50572 | 21.02186 | 6685 ft | 245 kts | 105° |
| 2026-04-22 17:58 | 48.50114 | 21.04616 | 6380 ft | 243 kts | 98° |
| 2026-04-22 17:58 | 48.49757 | 21.07041 | 6059 ft | 229 kts | 98° |
| 2026-04-22 17:58 | 48.49408 | 21.09338 | 5674 ft | 221 kts | 98° |
| 2026-04-22 17:58 | 48.49068 | 21.11551 | 5279 ft | 211 kts | 98° |
| 2026-04-22 17:59 | 48.48742 | 21.13685 | 4889 ft | 206 kts | 98° |
| 2026-04-22 17:59 | 48.48548 | 21.15761 | 4460 ft | 191 kts | 77° |
| 2026-04-22 17:59 | 48.49130 | 21.17426 | 4060 ft | 177 kts | 44° |
| 2026-04-22 17:59 | 48.50107 | 21.18455 | 3778 ft | 168 kts | 15° |
| 2026-04-22 18:00 | 48.50878 | 21.18729 | 3640 ft | 170 kts | 11° |
| 2026-04-22 18:00 | 48.52323 | 21.19233 | 3337 ft | 153 kts | 12° |
| 2026-04-22 18:00 | 48.53345 | 21.19591 | 3129 ft | 150 kts | 12° |
| 2026-04-22 18:00 | 48.54350 | 21.19944 | 2922 ft | 139 kts | 12° |
| 2026-04-22 18:01 | 48.55282 | 21.20270 | 2748 ft | 137 kts | 11° |
| 2026-04-22 18:01 | 48.56215 | 21.20595 | 2558 ft | 138 kts | 11° |
| 2026-04-22 18:01 | 48.57127 | 21.20914 | 2362 ft | 126 kts | 11° |
| 2026-04-22 18:01 | 48.57944 | 21.21197 | 2199 ft | 118 kts | 11° |
| 2026-04-22 18:02 | 48.58733 | 21.21470 | 2042 ft | 115 kts | 11° |
| 2026-04-22 18:02 | 48.59501 | 21.21737 | 1899 ft | 107 kts | 11° |
| 2026-04-22 18:02 | 48.60165 | 21.21971 | 1747 ft | 91 kts | 10° |
| 2026-04-22 18:02 | 48.60765 | 21.22176 | 1624 ft | 88 kts | 10° |
| 2026-04-22 18:03 | 48.61374 | 21.22396 | 1498 ft | 90 kts | 12° |
| 2026-04-22 18:03 | 48.61991 | 21.22607 | 1370 ft | 91 kts | 12° |
| 2026-04-22 18:03 | 48.62611 | 21.22814 | 1258 ft | 90 kts | 12° |
| 2026-04-22 18:03 | 48.63223 | 21.23035 | 1161 ft | 90 kts | 12° |
| 2026-04-22 18:04 | 48.63840 | 21.23249 | 1044 ft | 92 kts | 11° |
| 2026-04-22 18:04 | 48.64451 | 21.23473 | 913 ft | 90 kts | 13° |
| 2026-04-22 18:04 | 48.65056 | 21.23683 | 775 ft | 89 kts | 12° |
| 2026-04-22 18:04 | 48.65600 | 21.23869 | 752 ft | 68 kts | 13° |
| 2026-04-22 18:05 | 48.66015 | 21.24012 | 753 ft | 57 kts | 13° |
| 2026-04-22 18:05 | 48.66376 | 21.24138 | 753 ft | 50 kts | 12° |
| 2026-04-22 18:05 | 48.66705 | 21.24251 | 756 ft | 47 kts | 13° |
| 2026-04-22 18:05 | 48.67012 | 21.24363 | 756 ft | 42 kts | 14° |
| 2026-04-22 18:06 | 48.67187 | 21.24418 | 752 ft | 16 kts | 6° |
| 2026-04-22 18:06 | 48.67245 | 21.24309 | 754 ft | 14 kts | 283° |
| 2026-04-22 18:06 | 48.67241 | 21.24172 | 751 ft | 17 kts | 200° |
| 2026-04-22 18:06 | 48.67171 | 21.24078 | 754 ft | 17 kts | 283° |
| 2026-04-22 18:07 | 48.67198 | 21.23928 | 753 ft | 12 kts | 285° |
| 2026-04-22 18:07 | 48.67206 | 21.23881 | 751 ft | 5 kts | 283° |
| 2026-04-22 18:07 | 48.67207 | 21.23839 | 754 ft | 12 kts | 260° |
| 2026-04-22 18:07 | 48.67221 | 21.23783 | 750 ft | 0 kts | 343° |